createdAt,value
2019-03-20T00:00:57.487Z,77.20
2019-03-20T00:03:28.001Z,76.91
2019-03-20T00:05:58.458Z,76.59
2019-03-20T00:08:28.924Z,76.21
2019-03-20T00:10:59.522Z,75.89
2019-03-20T00:13:29.981Z,75.55
2019-03-20T00:16:00.535Z,75.03
2019-03-20T00:18:31.049Z,75.09
2019-03-20T00:21:01.519Z,75.17
2019-03-20T00:23:32.008Z,75.29
2019-03-20T00:26:02.460Z,75.22
2019-03-20T00:28:32.968Z,75.01
2019-03-20T00:31:03.491Z,74.96
2019-03-20T00:33:33.941Z,74.91
2019-03-20T00:36:04.432Z,74.73
2019-03-20T00:38:34.908Z,74.78
2019-03-20T00:41:05.516Z,74.77
2019-03-20T00:43:35.979Z,74.73
2019-03-20T00:46:06.501Z,74.55
2019-03-20T00:48:37.100Z,74.40
2019-03-20T00:51:07.610Z,74.31
2019-03-20T00:53:38.060Z,74.63
2019-03-20T00:56:08.555Z,74.55
2019-03-20T00:58:39.819Z,74.43
2019-03-20T01:01:10.498Z,74.30
2019-03-20T01:03:40.957Z,74.39
2019-03-20T01:06:11.525Z,74.35
2019-03-20T01:08:42.058Z,74.42
2019-03-20T01:11:12.734Z,74.14
2019-03-20T01:13:43.222Z,74.21
2019-03-20T01:16:13.722Z,74.04
2019-03-20T01:18:44.187Z,73.88
2019-03-20T01:21:14.682Z,74.10
2019-03-20T01:23:45.146Z,74.14
2019-03-20T01:26:15.653Z,73.56
2019-03-20T01:28:46.136Z,73.66
2019-03-20T01:31:16.647Z,73.77
2019-03-20T01:33:47.118Z,73.75
2019-03-20T01:36:17.625Z,73.67
2019-03-20T01:38:48.086Z,73.67
2019-03-20T01:41:18.592Z,73.60
2019-03-20T01:43:49.077Z,73.47
2019-03-20T01:46:19.593Z,74.18
2019-03-20T01:48:50.074Z,74.66
2019-03-20T01:51:21.967Z,74.16
2019-03-20T01:53:52.429Z,74.24
2019-03-20T01:56:22.947Z,73.66
2019-03-20T01:58:53.389Z,73.84
2019-03-20T02:01:23.846Z,73.88
2019-03-20T02:03:54.341Z,74.04
2019-03-20T02:06:24.807Z,73.93
2019-03-20T02:08:55.314Z,74.56
2019-03-20T02:11:25.785Z,74.79
2019-03-20T02:13:56.361Z,75.86
2019-03-20T02:16:26.863Z,78.48
2019-03-20T02:18:57.366Z,79.59
2019-03-20T02:21:27.830Z,79.59
2019-03-20T02:23:58.289Z,79.29
2019-03-20T02:26:28.785Z,77.66
2019-03-20T02:28:59.480Z,76.18
2019-03-20T02:31:29.979Z,76.02
2019-03-20T02:34:00.487Z,75.50
2019-03-20T02:36:30.969Z,75.15
2019-03-20T02:39:01.443Z,74.30
2019-03-20T02:41:31.940Z,73.65
2019-03-20T02:44:02.448Z,73.57
2019-03-20T02:46:33.044Z,73.13
2019-03-20T02:49:03.521Z,72.99
2019-03-20T02:51:33.990Z,73.50
2019-03-20T02:54:04.554Z,73.32
2019-03-20T02:56:36.042Z,73.24
2019-03-20T02:59:06.653Z,73.13
2019-03-20T03:01:37.160Z,73.05
2019-03-20T03:04:07.765Z,73.07
2019-03-20T03:06:38.250Z,72.82
2019-03-20T03:09:09.461Z,73.08
2019-03-20T03:11:39.928Z,73.12
2019-03-20T03:14:10.420Z,72.93
2019-03-20T03:16:40.922Z,72.84
2019-03-20T03:19:11.390Z,72.95
2019-03-20T03:21:41.888Z,72.37
2019-03-20T03:24:12.342Z,72.76
2019-03-20T03:26:42.840Z,72.74
2019-03-20T03:29:13.480Z,72.76
2019-03-20T03:31:43.993Z,72.79
2019-03-20T03:34:14.451Z,72.96
2019-03-20T03:36:44.908Z,73.00
2019-03-20T03:39:15.412Z,73.05
2019-03-20T03:41:45.914Z,73.16
2019-03-20T03:44:16.384Z,74.30
2019-03-20T03:46:46.897Z,75.91
2019-03-20T03:49:17.348Z,75.77
2019-03-20T03:51:47.844Z,76.33
2019-03-20T03:54:18.336Z,76.42
2019-03-20T03:56:49.489Z,76.45
2019-03-20T03:59:19.977Z,76.15
2019-03-20T04:01:50.590Z,75.95
2019-03-20T04:04:21.047Z,75.84
2019-03-20T04:06:51.551Z,75.55
2019-03-20T04:09:22.020Z,75.66
2019-03-20T04:11:52.527Z,75.63
2019-03-20T04:14:23.123Z,75.49
2019-03-20T04:16:53.601Z,75.56
2019-03-20T04:19:24.103Z,76.33
2019-03-20T04:21:54.566Z,76.39
2019-03-20T04:24:25.072Z,76.42
2019-03-20T04:26:55.577Z,76.25
2019-03-20T04:29:26.046Z,75.90
2019-03-20T04:31:56.565Z,75.70
2019-03-20T04:34:27.065Z,75.64
2019-03-20T04:36:57.551Z,75.54
2019-03-20T04:39:28.054Z,75.41
2019-03-20T04:41:58.560Z,75.25
2019-03-20T04:44:29.031Z,75.15
2019-03-20T04:46:59.540Z,75.14
2019-03-20T04:49:30.027Z,75.12
2019-03-20T04:52:00.607Z,75.02
2019-03-20T04:54:31.078Z,75.04
2019-03-20T04:57:01.668Z,75.28
2019-03-20T04:59:32.171Z,75.27
2019-03-20T05:02:02.680Z,75.34
2019-03-20T05:04:33.192Z,75.32
2019-03-20T05:07:03.660Z,75.39
2019-03-20T05:09:34.189Z,75.24
2019-03-20T05:12:04.766Z,75.27
2019-03-20T05:14:35.287Z,75.17
2019-03-20T05:17:05.964Z,75.40
2019-03-20T05:19:36.480Z,75.53
2019-03-20T05:22:06.967Z,75.51
2019-03-20T05:24:37.438Z,74.85
2019-03-20T05:27:08.029Z,74.72
2019-03-20T05:29:38.484Z,72.32
2019-03-20T05:32:08.994Z,71.08
2019-03-20T05:34:39.476Z,70.94
2019-03-20T05:37:10.898Z,69.82
2019-03-20T05:39:41.480Z,70.02
2019-03-20T05:42:12.001Z,69.67
2019-03-20T05:44:42.467Z,69.26
2019-03-20T05:47:12.993Z,69.41
2019-03-20T05:49:43.462Z,68.75
2019-03-20T05:52:13.970Z,68.58
2019-03-20T05:54:44.448Z,69.23
2019-03-20T05:57:14.926Z,69.55
2019-03-20T05:59:45.459Z,70.57
2019-03-20T06:02:15.934Z,70.20
2019-03-20T06:04:46.462Z,69.58
2019-03-20T06:07:21.522Z,69.29
2019-03-20T06:09:49.156Z,68.83
2019-03-20T06:12:19.643Z,68.98
2019-03-20T06:14:50.163Z,67.97
2019-03-20T06:17:20.769Z,69.63
2019-03-20T06:19:51.263Z,69.35
2019-03-20T06:22:22.645Z,69.49
2019-03-20T06:24:53.202Z,69.04
2019-03-20T06:27:23.763Z,68.78
2019-03-20T06:29:54.234Z,68.35
2019-03-20T06:32:24.761Z,68.14
2019-03-20T06:34:55.297Z,68.20
2019-03-20T06:37:32.575Z,67.90
2019-03-20T06:39:58.029Z,68.05
2019-03-20T06:42:28.543Z,68.14
2019-03-20T06:44:59.226Z,67.28
2019-03-20T06:47:29.783Z,65.96
2019-03-20T06:50:00.369Z,66.79
2019-03-20T06:52:30.912Z,66.35
2019-03-20T06:55:01.585Z,66.02
2019-03-20T06:57:32.062Z,65.58
2019-03-20T07:00:54.032Z,65.10
2019-03-20T07:03:28.830Z,65.29
2019-03-20T07:06:44.787Z,64.53
2019-03-20T07:09:31.507Z,64.93
2019-03-20T07:12:02.025Z,65.49
2019-03-20T07:14:32.536Z,65.54
2019-03-20T07:17:03.063Z,64.77
2019-03-20T07:19:33.592Z,62.79
2019-03-20T07:22:04.099Z,62.75
2019-03-20T07:24:34.625Z,61.13
2019-03-20T07:27:05.170Z,59.57
2019-03-20T07:29:35.684Z,58.97
2019-03-20T07:32:06.361Z,56.70
2019-03-20T07:34:37.103Z,56.98
2019-03-20T07:37:07.680Z,56.19
2019-03-20T07:39:38.201Z,56.25
2019-03-20T07:42:08.712Z,55.25
2019-03-20T07:44:39.233Z,55.71
2019-03-20T07:47:09.697Z,55.45
2019-03-20T07:49:40.283Z,55.43
2019-03-20T07:52:10.883Z,55.15
2019-03-20T07:54:41.871Z,54.04
2019-03-20T07:57:12.404Z,54.61
2019-03-20T07:59:42.958Z,53.47
2019-03-20T08:02:13.440Z,53.47
2019-03-20T08:04:43.978Z,53.66
2019-03-20T08:07:14.594Z,53.72
2019-03-20T08:09:45.072Z,52.88
2019-03-20T08:12:15.587Z,52.44
2019-03-20T08:14:46.123Z,52.63
2019-03-20T08:17:16.599Z,52.93
2019-03-20T08:19:47.186Z,53.14
2019-03-20T08:22:21.440Z,51.18
2019-03-20T08:24:51.999Z,51.60
2019-03-20T08:27:22.482Z,52.48
2019-03-20T08:29:53.031Z,51.97
2019-03-20T08:32:23.504Z,52.25
2019-03-20T08:34:54.143Z,51.65
2019-03-20T08:37:24.772Z,51.01
2019-03-20T08:39:55.332Z,51.50
2019-03-20T08:42:25.880Z,50.94
2019-03-20T08:44:56.470Z,51.20
2019-03-20T08:47:26.970Z,49.69
2019-03-20T08:49:57.487Z,49.74
2019-03-20T08:52:28.075Z,49.02
2019-03-20T08:54:58.566Z,49.43
2019-03-20T08:57:29.081Z,50.24
2019-03-20T08:59:59.560Z,50.00
2019-03-20T09:02:30.081Z,49.14
2019-03-20T09:05:00.560Z,49.01
2019-03-20T09:07:31.099Z,49.44
2019-03-20T09:10:01.593Z,49.07
2019-03-20T09:12:32.087Z,49.44
2019-03-20T09:15:02.599Z,49.73
2019-03-20T09:17:33.066Z,48.64
2019-03-20T09:20:03.613Z,47.73
2019-03-20T09:22:34.187Z,47.82
2019-03-20T09:25:05.279Z,47.07
2019-03-20T09:27:35.769Z,46.63
2019-03-20T09:30:08.479Z,47.41
2019-03-20T09:32:39.075Z,46.53
2019-03-20T09:35:09.717Z,46.66
2019-03-20T09:37:50.955Z,45.94
2019-03-20T09:40:14.203Z,45.27
2019-03-20T09:42:44.830Z,45.51
2019-03-20T09:45:16.459Z,44.24
2019-03-20T09:47:47.068Z,44.13
2019-03-20T09:50:18.308Z,42.71
2019-03-20T09:52:50.516Z,42.82
2019-03-20T09:55:21.102Z,43.57
2019-03-20T09:57:51.747Z,43.36
2019-03-20T10:00:23.406Z,41.89
2019-03-20T10:02:54.286Z,42.25
2019-03-20T10:05:24.924Z,42.18
2019-03-20T10:07:55.467Z,40.55
2019-03-20T10:10:26.061Z,41.25
2019-03-20T10:12:56.664Z,41.23
2019-03-20T10:15:27.232Z,41.81
2019-03-20T10:17:57.748Z,41.54
2019-03-20T10:20:28.349Z,41.63
2019-03-20T10:22:58.856Z,40.86
2019-03-20T10:25:29.347Z,41.58
2019-03-20T10:27:59.837Z,41.11
2019-03-20T10:30:30.579Z,40.76
2019-03-20T10:33:01.097Z,40.62
2019-03-20T10:35:31.621Z,40.61
2019-03-20T10:38:02.097Z,40.68
2019-03-20T10:40:32.566Z,40.94
2019-03-20T10:43:03.239Z,41.68
2019-03-20T10:45:33.728Z,40.99
2019-03-20T10:48:04.378Z,41.75
2019-03-20T10:50:34.859Z,40.60
2019-03-20T10:53:05.338Z,40.55
2019-03-20T10:55:35.984Z,40.93
2019-03-20T10:58:06.564Z,41.23
2019-03-20T11:00:37.132Z,40.96
2019-03-20T11:03:07.718Z,40.52
2019-03-20T11:05:38.252Z,41.07
2019-03-20T11:08:08.767Z,40.89
2019-03-20T11:10:39.343Z,40.97
2019-03-20T11:13:10.122Z,41.19
2019-03-20T11:15:40.650Z,41.96
2019-03-20T11:18:11.156Z,41.07
2019-03-20T11:20:41.758Z,41.20
2019-03-20T11:23:12.279Z,41.04
2019-03-20T11:25:42.816Z,41.46
2019-03-20T11:28:13.292Z,41.20
2019-03-20T11:30:43.819Z,42.08
2019-03-20T11:33:14.383Z,41.90
2019-03-20T11:35:44.902Z,41.13
2019-03-20T11:38:15.405Z,41.36
2019-03-20T11:40:45.933Z,41.46
2019-03-20T11:43:16.537Z,40.83
2019-03-20T11:45:47.228Z,40.62
2019-03-20T11:48:17.746Z,41.32
2019-03-20T11:50:48.249Z,41.33
2019-03-20T11:53:18.806Z,41.77
2019-03-20T11:55:49.325Z,41.19
2019-03-20T11:58:19.807Z,40.94
2019-03-20T12:00:50.513Z,41.29
2019-03-20T12:03:21.345Z,41.76
2019-03-20T12:05:51.946Z,41.47
2019-03-20T12:08:22.565Z,41.39
2019-03-20T12:10:53.060Z,41.48
2019-03-20T12:13:23.631Z,41.25
2019-03-20T12:15:54.197Z,41.30
2019-03-20T12:18:24.725Z,41.38
2019-03-20T12:20:55.256Z,41.71
2019-03-20T12:23:25.719Z,41.63
2019-03-20T12:25:56.209Z,41.38
2019-03-20T12:28:27.209Z,41.43
2019-03-20T12:30:57.751Z,41.09
2019-03-20T12:33:28.348Z,41.25
2019-03-20T12:35:58.924Z,41.53
2019-03-20T12:38:29.407Z,41.45
2019-03-20T12:40:59.947Z,40.82
2019-03-20T12:43:30.522Z,40.62
2019-03-20T12:46:01.181Z,40.50
2019-03-20T12:48:31.682Z,40.28
2019-03-20T12:51:02.204Z,40.36
2019-03-20T12:53:33.141Z,41.05
2019-03-20T12:56:03.676Z,41.72
2019-03-20T12:58:35.255Z,41.36
2019-03-20T13:01:06.344Z,41.42
2019-03-20T13:03:37.224Z,41.37
2019-03-20T13:06:07.824Z,40.65
2019-03-20T13:08:38.356Z,40.06
2019-03-20T13:11:08.915Z,40.15
2019-03-20T13:13:39.455Z,41.04
2019-03-20T13:16:09.941Z,40.78
2019-03-20T13:18:40.448Z,41.19
2019-03-20T13:21:10.966Z,39.74
2019-03-20T13:23:41.461Z,39.88
2019-03-20T13:26:11.978Z,40.29
2019-03-20T13:28:42.481Z,40.27
2019-03-20T13:31:16.047Z,40.66
2019-03-20T13:33:49.029Z,40.81
2019-03-20T13:36:18.817Z,39.78
2019-03-20T13:38:49.344Z,40.37
2019-03-20T13:41:19.837Z,40.34
2019-03-20T13:43:50.424Z,40.91
2019-03-20T13:46:20.919Z,41.29
2019-03-20T13:48:51.466Z,41.31
2019-03-20T13:51:22.005Z,41.68
2019-03-20T13:53:52.534Z,42.32
2019-03-20T13:56:23.089Z,41.21
2019-03-20T13:58:53.649Z,42.46
2019-03-20T14:01:24.224Z,41.84
2019-03-20T14:03:54.774Z,42.07
2019-03-20T14:06:25.272Z,42.04
2019-03-20T14:08:55.770Z,41.97
2019-03-20T14:11:26.343Z,42.26
2019-03-20T14:13:56.876Z,42.40
2019-03-20T14:16:27.421Z,42.89
2019-03-20T14:18:58.051Z,43.83
2019-03-20T14:21:28.578Z,43.97
2019-03-20T14:23:59.065Z,43.76
2019-03-20T14:26:29.573Z,44.55
2019-03-20T14:29:00.209Z,44.93
2019-03-20T14:31:30.686Z,44.79
2019-03-20T14:34:01.176Z,44.69
2019-03-20T14:36:31.685Z,44.88
2019-03-20T14:39:02.519Z,45.15
2019-03-20T14:41:33.020Z,45.14
2019-03-20T14:44:03.488Z,45.14
2019-03-20T14:46:35.656Z,45.77
2019-03-20T14:49:07.542Z,46.33
2019-03-20T14:51:38.140Z,47.03
2019-03-20T14:54:08.667Z,46.85
2019-03-20T14:56:39.199Z,47.36
2019-03-20T14:59:09.718Z,47.98
2019-03-20T15:01:40.238Z,48.14
2019-03-20T15:04:10.760Z,48.59
2019-03-20T15:06:41.238Z,49.10
2019-03-20T15:09:11.831Z,48.92
2019-03-20T15:11:42.353Z,48.77
2019-03-20T15:14:12.952Z,49.03
2019-03-20T15:16:43.562Z,48.50
2019-03-20T15:19:14.224Z,49.47
2019-03-20T15:21:44.706Z,49.22
2019-03-20T15:24:15.190Z,49.38
2019-03-20T15:26:45.745Z,49.52
2019-03-20T15:29:16.265Z,49.77
2019-03-20T15:31:46.892Z,49.96
2019-03-20T15:34:17.358Z,50.10
2019-03-20T15:36:47.836Z,50.10
2019-03-20T15:39:18.317Z,50.33
2019-03-20T15:41:48.816Z,50.37
2019-03-20T15:44:19.310Z,49.95
2019-03-20T15:46:49.773Z,49.69
2019-03-20T15:49:20.286Z,49.90
2019-03-20T15:51:50.754Z,50.29
2019-03-20T15:54:21.266Z,51.00
2019-03-20T15:56:51.873Z,51.81
2019-03-20T15:59:22.378Z,52.65
2019-03-20T16:01:52.950Z,53.41
2019-03-20T16:04:23.534Z,53.96
2019-03-20T16:06:54.039Z,53.77
2019-03-20T16:09:24.549Z,54.27
2019-03-20T16:11:55.025Z,54.41
2019-03-20T16:14:25.536Z,55.02
2019-03-20T16:16:56.108Z,55.13
2019-03-20T16:19:26.625Z,55.62
2019-03-20T16:21:57.109Z,56.20
2019-03-20T16:24:27.630Z,56.38
2019-03-20T16:26:58.090Z,56.73
2019-03-20T16:29:28.594Z,56.86
2019-03-20T16:31:59.070Z,57.20
2019-03-20T16:34:29.569Z,57.25
2019-03-20T16:37:00.033Z,57.53
2019-03-20T16:39:30.537Z,57.46
2019-03-20T16:42:01.108Z,57.47
2019-03-20T16:44:31.606Z,57.65
2019-03-20T16:47:02.083Z,57.99
2019-03-20T16:49:32.584Z,58.44
2019-03-20T16:52:03.035Z,58.86
2019-03-20T16:54:33.538Z,58.92
2019-03-20T16:57:04.006Z,59.33
2019-03-20T16:59:34.504Z,59.53
2019-03-20T17:02:05.079Z,59.75
2019-03-20T17:04:35.600Z,59.72
2019-03-20T17:07:06.221Z,60.25
2019-03-20T17:09:36.696Z,60.49
2019-03-20T17:12:07.318Z,60.70
2019-03-20T17:14:37.827Z,60.75
2019-03-20T17:17:08.398Z,60.84
2019-03-20T17:19:38.876Z,61.11
2019-03-20T17:22:09.420Z,61.14
2019-03-20T17:24:39.886Z,61.22
2019-03-20T17:27:10.458Z,61.31
2019-03-20T17:29:40.935Z,61.78
2019-03-20T17:32:11.443Z,62.07
2019-03-20T17:34:41.963Z,62.15
2019-03-20T17:37:12.431Z,62.32
2019-03-20T17:39:42.893Z,62.22
2019-03-20T17:42:13.398Z,62.43
2019-03-20T17:44:43.854Z,62.78
2019-03-20T17:47:14.375Z,62.73
2019-03-20T17:49:44.845Z,62.66
2019-03-20T17:52:15.351Z,62.18
2019-03-20T17:54:45.815Z,62.21
2019-03-20T17:57:16.319Z,62.20
2019-03-20T17:59:46.823Z,62.16
2019-03-20T18:02:23.905Z,62.31
2019-03-20T18:04:49.530Z,62.15
2019-03-20T18:07:20.051Z,62.26
2019-03-20T18:09:50.533Z,62.54
2019-03-20T18:12:21.051Z,62.69
2019-03-20T18:14:51.668Z,63.08
2019-03-20T18:17:22.143Z,63.54
2019-03-20T18:19:52.651Z,63.80
2019-03-20T18:22:23.221Z,63.90
2019-03-20T18:24:53.742Z,63.68
2019-03-20T18:27:24.215Z,63.29
2019-03-20T18:29:54.719Z,63.20
2019-03-20T18:32:25.202Z,63.19
2019-03-20T18:34:55.723Z,63.42
2019-03-20T18:37:26.191Z,63.52
2019-03-20T18:39:56.698Z,63.79
2019-03-20T18:42:27.182Z,63.59
2019-03-20T18:44:57.788Z,63.48
2019-03-20T18:47:28.252Z,63.40
2019-03-20T18:49:58.767Z,63.31
2019-03-20T18:52:29.229Z,63.27
2019-03-20T18:54:59.780Z,62.89
2019-03-20T18:57:30.258Z,62.26
2019-03-20T19:00:00.770Z,60.99
2019-03-20T19:02:31.247Z,59.68
2019-03-20T19:05:01.773Z,59.54
2019-03-20T19:07:32.406Z,60.11
2019-03-20T19:10:02.941Z,60.97
2019-03-20T19:12:33.608Z,61.62
2019-03-20T19:15:04.196Z,61.88
2019-03-20T19:17:34.669Z,62.38
2019-03-20T19:20:05.936Z,62.30
2019-03-20T19:22:36.432Z,62.26
2019-03-20T19:25:31.778Z,62.66
2019-03-20T19:28:02.253Z,62.75
2019-03-20T19:30:32.757Z,62.70
2019-03-20T19:33:03.226Z,62.83
2019-03-20T19:35:33.848Z,62.98
2019-03-20T19:38:04.507Z,63.31
2019-03-20T19:41:34.017Z,63.38
2019-03-20T19:45:03.648Z,63.25
2019-03-20T19:48:37.709Z,62.93
2019-03-20T19:51:36.471Z,62.64
2019-03-20T19:54:46.236Z,62.31
2019-03-20T19:57:36.650Z,62.08
2019-03-20T20:00:09.658Z,61.87
2019-03-20T20:03:19.213Z,61.57
2019-03-20T20:05:49.710Z,61.07
2019-03-20T20:08:20.208Z,60.17
2019-03-20T20:10:50.676Z,59.69
2019-03-20T20:13:21.129Z,58.92
2019-03-20T20:15:51.629Z,58.58
2019-03-20T20:18:22.098Z,58.22
2019-03-20T20:20:52.649Z,58.19
2019-03-20T20:23:23.112Z,58.12
2019-03-20T20:25:53.621Z,58.13
2019-03-20T20:28:24.135Z,57.92
2019-03-20T20:30:54.605Z,57.71
2019-03-20T20:33:25.075Z,57.60
2019-03-20T20:35:55.573Z,57.24
2019-03-20T20:38:26.045Z,57.16
2019-03-20T20:40:56.492Z,57.00
2019-03-20T20:43:27.089Z,56.75
2019-03-20T20:45:57.548Z,56.65
2019-03-20T20:48:28.060Z,56.40
2019-03-20T20:50:58.525Z,56.52
2019-03-20T20:53:29.022Z,56.57
2019-03-20T20:55:59.522Z,56.32
2019-03-20T20:58:29.973Z,56.14
2019-03-20T21:01:00.628Z,55.92
2019-03-20T21:03:31.154Z,55.98
2019-03-20T21:06:01.673Z,55.74
2019-03-20T21:08:32.144Z,55.68
2019-03-20T21:11:02.643Z,55.67
2019-03-20T21:13:36.775Z,55.64
2019-03-20T21:16:07.749Z,55.64
2019-03-20T21:19:12.325Z,55.67
2019-03-20T21:22:23.436Z,55.64
2019-03-20T21:24:54.437Z,55.47
2019-03-20T21:28:03.048Z,55.49
2019-03-20T21:30:58.625Z,55.30
2019-03-20T21:33:53.752Z,55.29
2019-03-20T21:37:02.150Z,55.41
2019-03-20T21:39:33.149Z,55.28
2019-03-20T21:43:06.966Z,55.25
2019-03-20T21:46:10.002Z,55.31
2019-03-20T21:48:41.003Z,55.04
2019-03-20T21:51:12.903Z,55.23
2019-03-20T21:54:17.689Z,55.40
2019-03-20T21:56:59.850Z,55.49
2019-03-20T22:00:05.807Z,55.64
2019-03-20T22:02:45.914Z,55.55
2019-03-20T22:05:25.345Z,55.74
2019-03-20T22:07:56.342Z,55.66
2019-03-20T22:11:16.636Z,55.20
2019-03-20T22:13:51.728Z,55.09
2019-03-20T22:17:29.975Z,55.07
2019-03-20T22:20:51.964Z,55.08
2019-03-20T22:23:39.461Z,55.17
2019-03-20T22:26:54.498Z,55.45
2019-03-20T22:29:28.543Z,55.46
2019-03-20T22:32:43.648Z,55.91
2019-03-20T22:35:28.966Z,55.90
2019-03-20T22:38:01.001Z,56.54
2019-03-20T22:41:15.124Z,57.20
2019-03-20T22:43:50.544Z,57.92
2019-03-20T22:46:56.242Z,58.94
2019-03-20T22:50:02.981Z,59.20
2019-03-20T22:53:09.324Z,59.86
2019-03-20T22:56:17.684Z,60.80
2019-03-20T22:58:48.977Z,61.79
2019-03-20T23:01:50.310Z,62.05
2019-03-20T23:04:25.673Z,62.56
2019-03-20T23:06:56.678Z,62.67
2019-03-20T23:09:27.720Z,62.72
2019-03-20T23:12:00.430Z,62.89
2019-03-20T23:14:31.470Z,63.05
2019-03-20T23:17:02.470Z,63.46
2019-03-20T23:19:33.501Z,63.89
2019-03-20T23:22:04.501Z,64.38
2019-03-20T23:24:35.534Z,64.56
2019-03-20T23:27:09.089Z,64.19
2019-03-20T23:29:40.071Z,64.12
2019-03-20T23:32:11.128Z,64.26
2019-03-20T23:34:42.104Z,63.93
2019-03-20T23:37:13.096Z,63.72
2019-03-20T23:39:44.122Z,63.68
2019-03-20T23:42:15.153Z,63.97
2019-03-20T23:44:46.179Z,64.28
2019-03-20T23:47:20.373Z,64.32
2019-03-20T23:49:51.354Z,64.05
2019-03-20T23:52:22.381Z,64.17
2019-03-20T23:54:55.365Z,63.79
2019-03-20T23:57:26.398Z,64.13
2019-03-20T23:59:59.772Z,64.21
